Time;durP1;ratioP1;P1;durP2;ratioP2;P2;SDS_P1;SDS_P2;PMS_P1;PMS_P2;Temp;Humidity;BMP_temperature;BMP_pressure;BME280_temperature;BME280_humidity;BME280_pressure;Samples;Min_cycle;Max_cycle;Signal;HPM_P1;HPM_P2
2022/04/12 00:00:21;;;;;;;11.52;4.18;;;;;;;;;;5066728;28;20101;-75
2022/04/12 00:02:47;;;;;;;6.47;4.38;;;;;;;;;;5083880;28;20048;-76
2022/04/12 00:05:13;;;;;;;7.28;4.03;;;;;;;;;;5065067;28;20403;-76
2022/04/12 00:07:40;;;;;;;9.90;5.07;;;;;;;;;;5066730;28;20036;-76
2022/04/12 00:10:06;;;;;;;10.90;4.75;;;;;;;;;;5083685;28;20036;-76
2022/04/12 00:12:32;;;;;;;7.43;3.92;;;;;;;;;;5065302;28;20063;-76
2022/04/12 00:14:58;;;;;;;8.50;4.90;;;;;;;;;;5067112;28;20484;-76
2022/04/12 00:20:09;;;;;;;7.30;4.70;;;;;;;;;;5082564;28;20045;-76
2022/04/12 00:22:35;;;;;;;8.48;4.82;;;;;;;;;;5065572;28;20037;-76
2022/04/12 00:25:01;;;;;;;9.98;4.85;;;;;;;;;;5066250;28;20043;-76
2022/04/12 00:27:28;;;;;;;7.68;4.43;;;;;;;;;;5066566;28;20377;-76
2022/04/12 00:29:54;;;;;;;9.38;5.60;;;;;;;;;;5081523;28;20044;-76
2022/04/12 00:32:20;;;;;;;8.35;4.22;;;;;;;;;;5066355;28;20032;-76
2022/04/12 00:34:46;;;;;;;8.35;4.30;;;;;;;;;;5066383;28;20036;-76
2022/04/12 00:37:12;;;;;;;8.82;4.22;;;;;;;;;;5081459;28;20041;-76
2022/04/12 00:39:38;;;;;;;9.38;4.90;;;;;;;;;;5067705;28;20039;-76
2022/04/12 00:42:04;;;;;;;8.18;4.95;;;;;;;;;;5065272;28;20032;-76
2022/04/12 00:44:31;;;;;;;10.30;4.82;;;;;;;;;;5102947;27;20138;-76
2022/04/12 00:46:57;;;;;;;8.90;4.30;;;;;;;;;;5102422;27;20075;-76
2022/04/12 00:49:25;;;;;;;7.60;5.18;;;;;;;;;;5105590;27;20027;-77
2022/04/12 00:51:52;;;;;;;12.80;4.75;;;;;;;;;;5107089;27;20088;-76
2022/04/12 00:54:19;;;;;;;7.65;4.53;;;;;;;;;;5105218;27;20042;-76
2022/04/12 00:56:49;;;;;;;8.43;4.80;;;;;;;;;;5105675;27;20074;-76
2022/04/12 00:59:15;;;;;;;7.65;4.38;;;;;;;;;;5089701;27;20114;-76
2022/04/12 01:01:41;;;;;;;10.52;5.03;;;;;;;;;;5105383;27;20042;-76
2022/04/12 01:04:07;;;;;;;9.18;4.72;;;;;;;;;;5105336;27;20126;-76
2022/04/12 01:06:33;;;;;;;11.70;4.63;;;;;;;;;;5106641;27;20126;-76
2022/04/12 01:08:59;;;;;;;9.05;5.05;;;;;;;;;;5088244;27;20475;-76
2022/04/12 01:11:26;;;;;;;8.25;5.28;;;;;;;;;;5105172;27;20083;-76
2022/04/12 01:13:52;;;;;;;9.73;6.05;;;;;;;;;;5106336;27;20039;-76
2022/04/12 01:16:18;;;;;;;9.07;4.65;;;;;;;;;;5087722;27;20031;-76
2022/04/12 01:18:45;;;;;;;8.43;4.68;;;;;;;;;;5105163;27;20176;-76
2022/04/12 01:21:11;;;;;;;12.65;5.85;;;;;;;;;;5106326;27;20921;-76
2022/04/12 01:23:37;;;;;;;8.57;5.00;;;;;;;;;;5084628;27;20031;-76
2022/04/12 01:26:02;;;;;;;7.85;5.22;;;;;;;;;;5103585;27;20438;-76
2022/04/12 01:28:29;;;;;;;9.18;5.40;;;;;;;;;;5085307;27;20131;-76
2022/04/12 01:30:55;;;;;;;10.40;5.70;;;;;;;;;;5100165;27;20031;-76
2022/04/12 01:33:21;;;;;;;11.25;5.22;;;;;;;;;;5101881;27;20033;-76
2022/04/12 01:35:47;;;;;;;7.47;4.38;;;;;;;;;;5085353;27;20035;-76
2022/04/12 01:38:13;;;;;;;10.90;5.63;;;;;;;;;;5100719;27;20043;-76
2022/04/12 01:40:39;;;;;;;12.40;6.05;;;;;;;;;;5101683;27;20050;-76
2022/04/12 01:43:05;;;;;;;10.68;5.85;;;;;;;;;;5093600;28;20059;-76
2022/04/12 01:45:31;;;;;;;12.52;6.03;;;;;;;;;;5091544;28;20594;-76
2022/04/12 01:47:57;;;;;;;8.75;5.30;;;;;;;;;;5074496;28;20040;-75
2022/04/12 01:50:23;;;;;;;9.02;5.05;;;;;;;;;;5091697;28;20371;-76
2022/04/12 01:52:49;;;;;;;10.85;6.10;;;;;;;;;;5091455;28;20067;-76
2022/04/12 01:55:15;;;;;;;13.63;5.90;;;;;;;;;;5091117;28;20471;-76
2022/04/12 01:57:41;;;;;;;11.93;5.95;;;;;;;;;;5091321;28;20678;-76
2022/04/12 02:00:07;;;;;;;12.38;6.20;;;;;;;;;;5090662;28;20039;-76
2022/04/12 02:02:33;;;;;;;10.65;5.47;;;;;;;;;;5074268;28;20039;-76
2022/04/12 02:04:59;;;;;;;11.68;5.18;;;;;;;;;;5091169;28;20055;-76
2022/04/12 02:07:26;;;;;;;10.05;5.78;;;;;;;;;;5090538;28;20495;-76
2022/04/12 02:09:52;;;;;;;13.00;6.50;;;;;;;;;;5091116;28;20050;-76
2022/04/12 02:12:18;;;;;;;12.23;6.60;;;;;;;;;;5074682;28;20035;-76
2022/04/12 02:14:44;;;;;;;9.40;5.63;;;;;;;;;;5090906;28;20044;-76
2022/04/12 02:17:10;;;;;;;10.38;5.85;;;;;;;;;;5091029;28;20535;-76
2022/04/12 02:19:36;;;;;;;11.02;5.93;;;;;;;;;;5073589;28;20114;-76
2022/04/12 02:22:05;;;;;;;13.80;5.97;;;;;;;;;;5074216;28;20043;-76
2022/04/12 02:24:31;;;;;;;18.00;6.72;;;;;;;;;;5090936;28;20054;-76
2022/04/12 02:26:57;;;;;;;10.63;6.38;;;;;;;;;;5074005;28;20047;-76
2022/04/12 02:29:23;;;;;;;15.45;6.72;;;;;;;;;;5091026;28;20044;-76
2022/04/12 02:31:49;;;;;;;17.23;6.85;;;;;;;;;;5075422;28;20472;-76
2022/04/12 02:34:15;;;;;;;13.25;6.57;;;;;;;;;;5077540;28;20043;-76
2022/04/12 02:36:41;;;;;;;11.88;6.57;;;;;;;;;;5094536;28;20040;-76
2022/04/12 02:39:07;;;;;;;12.02;6.43;;;;;;;;;;5077156;28;20039;-76
2022/04/12 02:41:33;;;;;;;9.75;6.45;;;;;;;;;;5077134;28;20055;-76
2022/04/12 02:43:58;;;;;;;12.93;6.88;;;;;;;;;;5078565;28;20063;-76
2022/04/12 02:46:24;;;;;;;14.55;6.35;;;;;;;;;;5053680;28;20526;-76
2022/04/12 02:48:50;;;;;;;11.57;6.15;;;;;;;;;;5053905;28;20033;-76
2022/04/12 02:51:16;;;;;;;14.23;6.50;;;;;;;;;;5070486;28;20040;-76
2022/04/12 02:53:42;;;;;;;11.65;6.10;;;;;;;;;;5053516;28;20036;-76
2022/04/12 02:56:08;;;;;;;13.82;6.32;;;;;;;;;;5070222;28;20126;-76
2022/04/12 02:58:34;;;;;;;13.57;6.65;;;;;;;;;;5053843;28;20128;-76
2022/04/12 03:01:00;;;;;;;18.67;6.90;;;;;;;;;;5070476;28;20397;-76
2022/04/12 03:03:26;;;;;;;15.57;7.20;;;;;;;;;;5053444;28;20044;-76
2022/04/12 03:05:52;;;;;;;15.63;7.60;;;;;;;;;;5053782;28;20083;-76
2022/04/12 03:08:18;;;;;;;10.55;5.63;;;;;;;;;;5053250;28;20101;-76
2022/04/12 03:10:44;;;;;;;12.93;6.80;;;;;;;;;;5054843;28;20033;-76
2022/04/12 03:13:10;;;;;;;13.13;6.13;;;;;;;;;;5077058;28;20335;-76
2022/04/12 03:15:36;;;;;;;14.85;6.88;;;;;;;;;;5060119;28;20040;-76
2022/04/12 03:18:02;;;;;;;13.30;6.22;;;;;;;;;;5059986;28;20041;-76
2022/04/12 03:20:28;;;;;;;13.57;6.95;;;;;;;;;;5060239;28;20040;-76
2022/04/12 03:22:54;;;;;;;14.65;7.55;;;;;;;;;;5076672;28;20511;-76
2022/04/12 03:25:20;;;;;;;12.80;6.88;;;;;;;;;;5059935;28;20125;-76
2022/04/12 03:27:46;;;;;;;17.23;7.70;;;;;;;;;;5059858;28;20051;-76
2022/04/12 03:30:12;;;;;;;15.65;6.55;;;;;;;;;;5076792;28;20532;-76
2022/04/12 03:32:38;;;;;;;10.70;6.10;;;;;;;;;;5059860;28;20211;-76
2022/04/12 03:35:05;;;;;;;14.68;6.63;;;;;;;;;;5076749;28;20174;-76
2022/04/12 03:37:31;;;;;;;11.27;6.13;;;;;;;;;;5059807;28;20063;-76
2022/04/12 03:39:57;;;;;;;13.95;6.82;;;;;;;;;;5076649;28;20045;-76
2022/04/12 03:42:23;;;;;;;15.85;7.43;;;;;;;;;;5059724;28;20044;-76
2022/04/12 03:44:49;;;;;;;11.15;5.85;;;;;;;;;;5076320;28;20496;-76
2022/04/12 03:47:15;;;;;;;14.45;7.38;;;;;;;;;;5059737;28;20044;-76
2022/04/12 03:49:41;;;;;;;16.45;7.45;;;;;;;;;;5076438;28;20044;-76
2022/04/12 03:52:07;;;;;;;12.77;7.20;;;;;;;;;;5059640;28;20043;-76
2022/04/12 03:54:33;;;;;;;12.93;6.97;;;;;;;;;;5059634;28;20048;-76
2022/04/12 03:56:59;;;;;;;12.18;6.72;;;;;;;;;;5060261;28;20481;-76
2022/04/12 03:59:25;;;;;;;14.95;7.72;;;;;;;;;;5059624;28;20044;-76
2022/04/12 04:01:51;;;;;;;13.70;7.15;;;;;;;;;;5059703;28;20131;-76
2022/04/12 04:04:17;;;;;;;14.32;6.90;;;;;;;;;;5076215;28;20082;-76
2022/04/12 04:06:43;;;;;;;14.48;6.47;;;;;;;;;;5059734;28;20041;-76
2022/04/12 04:09:09;;;;;;;15.93;7.45;;;;;;;;;;5076328;28;20123;-76
2022/04/12 04:11:38;;;;;;;17.70;7.40;;;;;;;;;;5076532;28;20178;-76
2022/04/12 04:14:05;;;;;;;13.15;7.78;;;;;;;;;;5059955;28;20909;-76
2022/04/12 04:16:31;;;;;;;12.20;7.63;;;;;;;;;;5059644;28;20072;-77
2022/04/12 04:18:57;;;;;;;13.82;7.47;;;;;;;;;;5059695;28;20043;-76
2022/04/12 04:21:23;;;;;;;14.60;6.93;;;;;;;;;;5059509;28;20048;-77
2022/04/12 04:23:49;;;;;;;12.70;6.93;;;;;;;;;;5072353;28;20166;-77
2022/04/12 04:26:15;;;;;;;15.82;7.85;;;;;;;;;;5056541;28;20045;-76
2022/04/12 04:28:44;;;;;;;15.10;7.60;;;;;;;;;;5056188;28;20037;-76
2022/04/12 04:31:10;;;;;;;12.65;7.45;;;;;;;;;;5056220;28;20048;-76
2022/04/12 04:33:36;;;;;;;14.15;7.45;;;;;;;;;;5055968;28;20412;-76
2022/04/12 04:36:02;;;;;;;12.68;7.00;;;;;;;;;;5056235;28;20044;-76
2022/04/12 04:38:28;;;;;;;14.95;8.02;;;;;;;;;;5055862;28;20423;-77
2022/04/12 04:40:54;;;;;;;13.50;7.60;;;;;;;;;;5072693;28;20044;-76
2022/04/12 04:43:20;;;;;;;17.25;8.75;;;;;;;;;;5055622;28;20052;-76
2022/04/12 04:45:46;;;;;;;15.18;7.90;;;;;;;;;;5055990;28;20057;-76
2022/04/12 04:48:12;;;;;;;15.05;7.75;;;;;;;;;;5072458;28;20503;-76
2022/04/12 04:50:38;;;;;;;15.73;7.57;;;;;;;;;;5055796;28;20047;-76
2022/04/12 04:53:06;;;;;;;18.17;8.48;;;;;;;;;;5072549;28;20072;-76
2022/04/12 04:55:35;;;;;;;17.00;8.32;;;;;;;;;;5055875;28;20043;-76
2022/04/12 04:58:01;;;;;;;13.25;7.38;;;;;;;;;;5055635;28;20040;-76
2022/04/12 05:00:32;;;;;;;15.65;8.00;;;;;;;;;;5072286;28;20132;-76
2022/04/12 05:02:59;;;;;;;14.57;8.00;;;;;;;;;;5055619;28;20043;-76
2022/04/12 05:05:25;;;;;;;16.25;8.98;;;;;;;;;;5055895;28;20036;-76
2022/04/12 05:07:52;;;;;;;18.05;8.90;;;;;;;;;;5072252;28;20123;-76
2022/04/12 05:10:19;;;;;;;22.88;9.75;;;;;;;;;;5072180;28;20036;-76
2022/04/12 05:12:45;;;;;;;17.00;7.22;;;;;;;;;;5072097;28;20036;-76
2022/04/12 05:15:11;;;;;;;16.85;7.65;;;;;;;;;;5072384;28;20119;-76
2022/04/12 05:17:37;;;;;;;15.25;8.18;;;;;;;;;;5055359;28;20149;-76
2022/04/12 05:20:06;;;;;;;16.50;8.18;;;;;;;;;;5055231;28;20040;-76
2022/04/12 05:22:32;;;;;;;14.13;6.90;;;;;;;;;;5055127;28;20043;-76
2022/04/12 05:24:58;;;;;;;13.10;7.80;;;;;;;;;;5055658;28;20041;-76
2022/04/12 05:27:24;;;;;;;14.52;7.78;;;;;;;;;;5055160;28;20036;-76
2022/04/12 05:29:50;;;;;;;14.15;8.35;;;;;;;;;;5071797;28;20037;-76
2022/04/12 05:32:16;;;;;;;15.27;8.45;;;;;;;;;;5071579;28;20106;-76
2022/04/12 05:34:43;;;;;;;16.55;7.47;;;;;;;;;;5071429;28;20036;-76
2022/04/12 05:37:10;;;;;;;14.40;8.13;;;;;;;;;;5054815;28;20071;-76
2022/04/12 05:39:36;;;;;;;15.93;8.05;;;;;;;;;;5071799;28;20052;-76
2022/04/12 05:42:02;;;;;;;15.38;8.30;;;;;;;;;;5071712;28;20036;-76
2022/04/12 05:44:35;;;;;;;19.30;8.55;;;;;;;;;;5073814;28;20104;-76
2022/04/12 05:47:01;;;;;;;16.23;8.70;;;;;;;;;;5077990;28;20043;-76
2022/04/12 05:49:28;;;;;;;15.32;8.40;;;;;;;;;;5095862;28;20051;-76
2022/04/12 05:51:54;;;;;;;17.88;9.00;;;;;;;;;;5095539;28;20039;-77
2022/04/12 05:54:20;;;;;;;14.05;8.38;;;;;;;;;;5078765;28;20076;-76
2022/04/12 05:57:05;;;;;;;18.60;9.32;;;;;;;;;;5098009;28;20464;-76
2022/04/12 05:59:31;;;;;;;20.67;9.05;;;;;;;;;;5077899;28;20071;-76
2022/04/12 06:01:56;;;;;;;16.63;8.68;;;;;;;;;;5078078;28;20398;-76
2022/04/12 06:04:22;;;;;;;16.08;7.63;;;;;;;;;;5077773;28;20050;-76
2022/04/12 06:06:48;;;;;;;15.23;7.80;;;;;;;;;;5094436;28;20039;-76
2022/04/12 06:09:14;;;;;;;16.80;8.60;;;;;;;;;;5077757;28;20042;-76
2022/04/12 06:11:40;;;;;;;15.80;7.70;;;;;;;;;;5077550;28;20041;-76
2022/04/12 06:14:06;;;;;;;16.23;7.95;;;;;;;;;;5094456;28;20491;-76
2022/04/12 06:16:32;;;;;;;18.67;7.82;;;;;;;;;;5094762;28;20491;-76
2022/04/12 06:18:58;;;;;;;18.27;7.30;;;;;;;;;;5077909;28;20046;-76
2022/04/12 06:21:24;;;;;;;12.30;6.68;;;;;;;;;;5094434;28;20043;-76
2022/04/12 06:23:50;;;;;;;15.75;8.35;;;;;;;;;;5094568;28;20183;-76
2022/04/12 06:26:16;;;;;;;18.45;8.85;;;;;;;;;;5094473;28;20608;-76
2022/04/12 06:28:42;;;;;;;15.52;8.43;;;;;;;;;;5077376;28;20047;-76
2022/04/12 06:31:08;;;;;;;13.25;8.13;;;;;;;;;;5077676;28;20039;-76
2022/04/12 06:33:34;;;;;;;15.95;8.57;;;;;;;;;;5094438;28;20038;-76
2022/04/12 06:36:00;;;;;;;15.93;8.18;;;;;;;;;;5077415;28;20060;-76
2022/04/12 06:38:26;;;;;;;14.40;8.45;;;;;;;;;;5094026;28;20047;-77
2022/04/12 06:40:52;;;;;;;17.25;8.23;;;;;;;;;;5077290;28;20130;-76
2022/04/12 06:43:18;;;;;;;14.77;7.75;;;;;;;;;;5093654;28;20066;-76
2022/04/12 06:45:44;;;;;;;14.13;7.68;;;;;;;;;;5076792;28;20055;-76
2022/04/12 06:48:10;;;;;;;15.90;8.45;;;;;;;;;;5076934;28;20422;-76
2022/04/12 06:50:36;;;;;;;15.65;8.25;;;;;;;;;;5077334;28;20043;-76
2022/04/12 06:53:03;;;;;;;17.38;8.05;;;;;;;;;;5077116;28;20032;-77
2022/04/12 06:55:29;;;;;;;15.00;7.65;;;;;;;;;;5094083;28;20039;-76
2022/04/12 06:57:55;;;;;;;14.05;7.75;;;;;;;;;;5076922;28;20134;-76
2022/04/12 07:00:21;;;;;;;14.00;8.30;;;;;;;;;;5076818;28;20082;-76
2022/04/12 07:02:47;;;;;;;13.18;7.95;;;;;;;;;;5076984;28;20483;-76
2022/04/12 07:05:13;;;;;;;13.10;7.30;;;;;;;;;;5094028;28;20471;-76
2022/04/12 07:07:40;;;;;;;15.15;8.20;;;;;;;;;;5093572;28;20078;-76
2022/04/12 07:10:07;;;;;;;14.05;7.93;;;;;;;;;;5093963;28;20069;-76
2022/04/12 07:12:33;;;;;;;13.25;7.38;;;;;;;;;;5077178;28;20498;-76
2022/04/12 07:14:59;;;;;;;13.35;7.78;;;;;;;;;;5093630;28;20119;-76
2022/04/12 07:17:25;;;;;;;15.00;8.32;;;;;;;;;;5077027;28;20456;-77
2022/04/12 07:19:51;;;;;;;17.98;7.65;;;;;;;;;;5093656;28;20088;-76
2022/04/12 07:22:17;;;;;;;15.13;7.90;;;;;;;;;;5093585;28;20036;-76
2022/04/12 07:24:43;;;;;;;15.13;7.63;;;;;;;;;;5076927;28;20516;-76
2022/04/12 07:27:09;;;;;;;14.63;8.05;;;;;;;;;;5076970;28;20039;-76
2022/04/12 07:29:35;;;;;;;14.18;7.90;;;;;;;;;;5093462;28;20078;-76
2022/04/12 07:32:01;;;;;;;14.35;8.35;;;;;;;;;;5076659;28;20455;-76
2022/04/12 07:34:27;;;;;;;13.30;8.27;;;;;;;;;;5076895;28;20043;-77
2022/04/12 07:36:56;;;;;;;14.43;8.05;;;;;;;;;;5076906;28;20055;-77
2022/04/12 07:39:22;;;;;;;13.23;8.25;;;;;;;;;;5076840;28;20475;-77
2022/04/12 07:41:48;;;;;;;13.68;7.68;;;;;;;;;;5076323;28;20053;-77
2022/04/12 07:44:15;;;;;;;14.10;7.53;;;;;;;;;;5058795;28;20052;-77
2022/04/12 07:46:41;;;;;;;13.73;8.18;;;;;;;;;;5053355;28;20055;-76
2022/04/12 07:49:07;;;;;;;11.50;7.85;;;;;;;;;;5053087;28;20037;-76
2022/04/12 07:51:33;;;;;;;12.13;7.60;;;;;;;;;;5053102;28;20039;-77
2022/04/12 07:54:01;;;;;;;13.75;7.75;;;;;;;;;;5053051;28;20041;-76
2022/04/12 07:56:27;;;;;;;13.38;7.75;;;;;;;;;;5069612;28;20116;-77
2022/04/12 07:58:53;;;;;;;12.55;7.97;;;;;;;;;;5071942;28;20105;-77
2022/04/12 08:01:19;;;;;;;11.15;7.82;;;;;;;;;;5073223;28;20400;-77
2022/04/12 08:03:45;;;;;;;14.27;8.10;;;;;;;;;;5056874;28;20047;-77
2022/04/12 08:06:11;;;;;;;12.68;7.97;;;;;;;;;;5073140;28;20066;-77
2022/04/12 08:08:37;;;;;;;10.98;7.63;;;;;;;;;;5073109;28;20051;-77
2022/04/12 08:11:04;;;;;;;13.65;12.25;;;;;;;;;;5056528;28;20123;-77
2022/04/12 08:13:30;;;;;;;13.25;10.85;;;;;;;;;;5056390;28;20037;-77
2022/04/12 08:15:57;;;;;;;12.45;10.07;;;;;;;;;;5056520;28;20037;-77
2022/04/12 08:18:23;;;;;;;12.32;11.02;;;;;;;;;;5073373;28;20048;-76
2022/04/12 08:20:54;;;;;;;12.00;10.77;;;;;;;;;;5056213;28;20040;-76
2022/04/12 08:23:24;;;;;;;13.38;10.82;;;;;;;;;;5073104;28;20443;-78
2022/04/12 08:25:50;;;;;;;13.50;10.95;;;;;;;;;;5056623;28;20127;-77
2022/04/12 08:28:16;;;;;;;11.63;10.27;;;;;;;;;;5056204;28;20048;-77
2022/04/12 08:30:42;;;;;;;11.38;10.18;;;;;;;;;;5056225;28;20045;-77
2022/04/12 08:33:09;;;;;;;11.73;10.50;;;;;;;;;;5072807;28;20170;-77
2022/04/12 08:35:35;;;;;;;11.68;10.45;;;;;;;;;;5073012;28;20132;-77
2022/04/12 08:38:01;;;;;;;12.40;10.75;;;;;;;;;;5056430;28;20057;-77
2022/04/12 08:40:27;;;;;;;11.45;10.30;;;;;;;;;;5072649;28;20074;-77
2022/04/12 08:42:54;;;;;;;10.90;9.80;;;;;;;;;;5078288;28;20090;-77
2022/04/12 08:45:21;;;;;;;10.93;9.82;;;;;;;;;;5096633;28;20138;-77
2022/04/12 08:47:48;;;;;;;11.27;9.98;;;;;;;;;;5079357;28;20044;-77
2022/04/12 08:50:14;;;;;;;11.05;9.80;;;;;;;;;;5079266;28;20040;-77
2022/04/12 08:52:40;;;;;;;11.32;10.13;;;;;;;;;;5095987;28;20093;-77
2022/04/12 08:55:07;;;;;;;11.23;10.00;;;;;;;;;;5079278;28;20101;-77
2022/04/12 08:57:33;;;;;;;11.07;9.70;;;;;;;;;;5079201;28;20126;-77
2022/04/12 09:00:00;;;;;;;11.48;10.27;;;;;;;;;;5095814;28;20377;-77
2022/04/12 09:02:26;;;;;;;11.23;10.10;;;;;;;;;;5096154;28;20511;-77
2022/04/12 09:04:52;;;;;;;11.23;10.13;;;;;;;;;;5078951;28;20071;-77
2022/04/12 09:07:24;;;;;;;12.10;10.02;;;;;;;;;;5102207;27;20114;-77
2022/04/12 09:09:50;;;;;;;11.60;10.40;;;;;;;;;;5103915;27;20047;-77
2022/04/12 09:12:17;;;;;;;10.88;9.77;;;;;;;;;;5106292;27;20031;-77
2022/04/12 09:14:46;;;;;;;12.43;10.40;;;;;;;;;;5088919;27;20042;-77
2022/04/12 09:17:16;;;;;;;11.45;10.23;;;;;;;;;;5104166;27;20036;-77
2022/04/12 09:19:42;;;;;;;11.93;10.30;;;;;;;;;;5113039;27;20035;-77
2022/04/12 09:22:27;;;;;;;11.32;10.23;;;;;;;;;;5116135;27;20405;-77
2022/04/12 09:24:54;;;;;;;12.55;10.45;;;;;;;;;;5116429;27;20035;-77
2022/04/12 09:27:21;;;;;;;11.52;10.43;;;;;;;;;;5116644;27;20075;-76
2022/04/12 09:29:57;;;;;;;12.25;10.35;;;;;;;;;;5116668;27;20509;-77
2022/04/12 09:32:27;;;;;;;12.43;11.10;;;;;;;;;;5116684;27;20417;-77
2022/04/12 09:34:54;;;;;;;11.02;7.15;;;;;;;;;;5116366;27;20042;-77
2022/04/12 09:37:20;;;;;;;13.07;8.25;;;;;;;;;;5115903;27;20043;-76
2022/04/12 09:39:47;;;;;;;11.35;7.70;;;;;;;;;;5116458;27;20046;-77
2022/04/12 09:42:13;;;;;;;13.48;10.63;;;;;;;;;;5116208;27;20042;-77
2022/04/12 09:44:39;;;;;;;11.35;7.18;;;;;;;;;;5116068;27;20055;-77
2022/04/12 09:47:05;;;;;;;11.95;10.70;;;;;;;;;;5116315;27;20123;-77
2022/04/12 09:49:46;;;;;;;10.10;6.70;;;;;;;;;;5115878;27;20039;-76
2022/04/12 09:52:12;;;;;;;;;;;;;;;;;;5116643;27;20045;-77
2022/04/12 09:54:38;;;;;;;14.73;7.43;;;;;;;;;;5115793;27;20351;-77
2022/04/12 09:57:04;;;;;;;10.57;7.53;;;;;;;;;;5105196;27;20039;-76
2022/04/12 09:59:34;;;;;;;11.68;7.38;;;;;;;;;;5100113;27;20390;-77
2022/04/12 10:02:00;;;;;;;11.57;7.07;;;;;;;;;;5105800;27;20116;-77
2022/04/12 10:04:27;;;;;;;11.23;7.68;;;;;;;;;;5111455;27;20031;-77
2022/04/12 10:06:54;;;;;;;10.52;6.85;;;;;;;;;;5096054;27;20042;-76
2022/04/12 10:09:21;;;;;;;10.93;7.80;;;;;;;;;;5112550;27;20043;-76
2022/04/12 10:11:48;;;;;;;13.85;8.02;;;;;;;;;;5077871;28;20039;-77
2022/04/12 10:14:15;;;;;;;11.75;7.45;;;;;;;;;;5099945;27;20315;-77
2022/04/12 10:16:41;;;;;;;11.45;7.60;;;;;;;;;;5107330;28;20040;-77
2022/04/12 10:19:07;;;;;;;12.95;8.35;;;;;;;;;;5106766;27;20471;-77
2022/04/12 10:21:35;;;;;;;12.32;7.57;;;;;;;;;;5107811;27;20044;-78
2022/04/12 10:24:02;;;;;;;13.68;7.50;;;;;;;;;;5103990;27;20406;-77
2022/04/12 10:26:29;;;;;;;12.38;7.95;;;;;;;;;;5103328;27;20033;-78
2022/04/12 10:28:59;;;;;;;9.85;6.97;;;;;;;;;;5106179;27;20092;-77
2022/04/12 10:31:30;;;;;;;12.98;7.85;;;;;;;;;;5085478;27;20036;-77
2022/04/12 10:34:02;;;;;;;11.68;7.35;;;;;;;;;;5105496;27;20118;-78
2022/04/12 10:36:47;;;;;;;12.57;7.57;;;;;;;;;;5103486;28;20462;-77
2022/04/12 10:39:13;;;;;;;14.25;7.80;;;;;;;;;;5087929;27;20046;-78
2022/04/12 10:41:42;;;;;;;14.05;8.00;;;;;;;;;;5103131;27;20047;-78
2022/04/12 10:44:19;;;;;;;11.73;7.25;;;;;;;;;;5103811;27;20062;-77
2022/04/12 10:46:51;;;;;;;9.75;7.15;;;;;;;;;;5100981;28;20051;-77
2022/04/12 10:49:18;;;;;;;13.48;8.77;;;;;;;;;;5103712;27;20042;-78
2022/04/12 10:51:46;;;;;;;12.25;7.70;;;;;;;;;;5095590;28;20074;-77
2022/04/12 10:54:28;;;;;;;12.30;8.25;;;;;;;;;;5079967;28;20040;-77
2022/04/12 10:57:13;;;;;;;10.85;7.72;;;;;;;;;;5094083;27;20419;-78
2022/04/12 10:59:39;;;;;;;10.80;7.30;;;;;;;;;;5098371;28;20060;-78
2022/04/12 11:02:11;;;;;;;11.43;7.30;;;;;;;;;;5081334;28;20483;-75
2022/04/12 11:04:37;;;;;;;13.00;7.93;;;;;;;;;;5079792;28;20044;-77
2022/04/12 11:07:07;;;;;;;11.07;7.72;;;;;;;;;;5078416;28;20039;-77
2022/04/12 11:09:33;;;;;;;11.73;8.40;;;;;;;;;;5080272;28;20035;-77
2022/04/12 11:12:01;;;;;;;13.38;7.72;;;;;;;;;;5096471;28;20040;-78
2022/04/12 11:14:28;;;;;;;13.00;8.13;;;;;;;;;;5074167;28;20084;-77
2022/04/12 11:16:59;;;;;;;9.90;6.88;;;;;;;;;;5077675;28;20050;-77
2022/04/12 11:19:25;;;;;;;14.75;7.47;;;;;;;;;;5106267;28;20075;-76
2022/04/12 11:21:54;;;;;;;12.38;7.75;;;;;;;;;;5104557;28;20039;-76
2022/04/12 11:24:21;;;;;;;12.15;7.60;;;;;;;;;;5105934;28;20406;-77
2022/04/12 11:26:50;;;;;;;10.93;7.28;;;;;;;;;;5106664;28;20547;-76
2022/04/12 11:29:20;;;;;;;13.15;8.73;;;;;;;;;;5108247;28;20040;-76
2022/04/12 11:31:48;;;;;;;12.43;6.90;;;;;;;;;;5104986;27;20066;-78
2022/04/12 11:34:14;;;;;;;11.18;7.03;;;;;;;;;;5111590;27;20027;-78
2022/04/12 11:36:44;;;;;;;10.43;6.47;;;;;;;;;;5111936;27;20035;-78
2022/04/12 11:39:11;;;;;;;12.27;7.10;;;;;;;;;;5109230;27;20032;-80
2022/04/12 11:41:36;;;;;;;10.38;6.88;;;;;;;;;;5109708;27;20418;-77
2022/04/12 11:44:04;;;;;;;11.43;7.00;;;;;;;;;;5112236;27;20040;-76
2022/04/12 11:46:30;;;;;;;16.45;8.00;;;;;;;;;;5111307;27;20095;-76
2022/04/12 11:49:07;;;;;;;10.07;6.75;;;;;;;;;;5106100;28;20047;-77
2022/04/12 11:51:51;;;;;;;13.45;7.32;;;;;;;;;;5096235;28;20075;-79
2022/04/12 11:54:24;;;;;;;13.60;8.55;;;;;;;;;;5082712;28;20077;-78
2022/04/12 11:56:58;;;;;;;14.93;8.18;;;;;;;;;;5083977;28;20448;-77
2022/04/12 11:59:24;;;;;;;11.82;7.50;;;;;;;;;;5081789;28;20075;-78
2022/04/12 12:01:50;;;;;;;16.05;7.80;;;;;;;;;;5096442;28;20077;-77
2022/04/12 12:04:16;;;;;;;11.27;6.55;;;;;;;;;;5080925;28;20032;-76
2022/04/12 12:06:55;;;;;;;12.32;7.70;;;;;;;;;;5080758;28;20043;-78
2022/04/12 12:09:21;;;;;;;11.65;7.60;;;;;;;;;;5077691;28;20483;-81
2022/04/12 12:11:48;;;;;;;11.27;6.60;;;;;;;;;;5094627;28;20046;-78
2022/04/12 12:14:14;;;;;;;11.63;7.18;;;;;;;;;;5096234;28;20040;-79
2022/04/12 12:16:41;;;;;;;13.68;8.57;;;;;;;;;;5079393;28;20043;-80
2022/04/12 12:19:14;;;;;;;13.40;7.68;;;;;;;;;;5098503;28;20539;-75
2022/04/12 12:21:43;;;;;;;14.63;7.68;;;;;;;;;;5083611;28;20036;-75
2022/04/12 12:24:09;;;;;;;12.85;8.05;;;;;;;;;;5099666;28;20050;-77
2022/04/12 12:26:35;;;;;;;12.60;7.63;;;;;;;;;;5097125;28;20054;-80
2022/04/12 12:29:01;;;;;;;12.65;7.28;;;;;;;;;;5097123;28;20403;-77
2022/04/12 12:31:27;;;;;;;11.10;6.85;;;;;;;;;;5097280;28;20527;-80
2022/04/12 12:33:53;;;;;;;12.88;7.95;;;;;;;;;;5094586;28;20091;-74
2022/04/12 12:36:20;;;;;;;14.18;6.97;;;;;;;;;;5095177;28;20047;-78
2022/04/12 12:38:46;;;;;;;13.25;7.65;;;;;;;;;;5076408;28;20044;-76
2022/04/12 12:41:23;;;;;;;13.55;7.88;;;;;;;;;;5094739;28;20046;-78
2022/04/12 12:43:52;;;;;;;11.88;7.70;;;;;;;;;;5094454;28;20136;-78
2022/04/12 12:46:18;;;;;;;16.38;11.75;;;;;;;;;;5098513;28;20043;-77
2022/04/12 12:48:44;;;;;;;13.93;7.13;;;;;;;;;;5094953;28;20047;-79
2022/04/12 12:51:11;;;;;;;14.75;7.63;;;;;;;;;;5079283;28;20510;-75
2022/04/12 12:53:40;;;;;;;13.20;7.18;;;;;;;;;;5099652;28;20083;-79
2022/04/12 12:56:15;;;;;;;15.82;7.53;;;;;;;;;;5095695;28;20069;-81
2022/04/12 12:58:41;;;;;;;14.25;10.23;;;;;;;;;;5080894;28;20069;-74
2022/04/12 13:01:07;;;;;;;13.43;7.70;;;;;;;;;;5081440;28;20044;-75
2022/04/12 13:03:33;;;;;;;14.70;7.60;;;;;;;;;;5098443;28;20067;-77
2022/04/12 13:06:00;;;;;;;15.25;11.25;;;;;;;;;;5097959;28;20050;-78
2022/04/12 13:08:28;;;;;;;13.90;8.20;;;;;;;;;;5081224;28;20112;-76
2022/04/12 13:10:58;;;;;;;14.10;8.43;;;;;;;;;;5080572;28;20051;-76
2022/04/12 13:13:24;;;;;;;13.93;7.20;;;;;;;;;;5080648;28;20044;-77
2022/04/12 13:15:50;;;;;;;19.27;12.25;;;;;;;;;;5097822;28;20055;-77
2022/04/12 13:18:16;;;;;;;13.32;7.75;;;;;;;;;;5097566;28;20107;-78
2022/04/12 13:20:42;;;;;;;14.00;7.82;;;;;;;;;;5103675;28;20085;-76
2022/04/12 13:23:08;;;;;;;13.02;7.43;;;;;;;;;;5087865;28;20127;-78
2022/04/12 13:25:34;;;;;;;15.30;10.48;;;;;;;;;;5105565;28;20062;-76
2022/04/12 13:28:00;;;;;;;14.73;7.75;;;;;;;;;;5101686;28;20035;-79
2022/04/12 13:30:26;;;;;;;16.75;12.30;;;;;;;;;;5102659;28;20043;-75
2022/04/12 13:32:52;;;;;;;15.75;7.68;;;;;;;;;;5088729;28;20043;-75
2022/04/12 13:35:21;;;;;;;16.98;11.93;;;;;;;;;;5105194;28;20051;-76
2022/04/12 13:37:47;;;;;;;16.73;8.57;;;;;;;;;;5100656;28;20108;-76
2022/04/12 13:40:14;;;;;;;14.32;8.70;;;;;;;;;;5087103;28;20100;-75
2022/04/12 13:42:46;;;;;;;18.13;12.52;;;;;;;;;;5104503;28;20101;-75
2022/04/12 13:45:13;;;;;;;17.38;12.40;;;;;;;;;;5088883;28;20035;-76
2022/04/12 13:47:39;;;;;;;18.50;12.48;;;;;;;;;;5088297;28;20042;-76
2022/04/12 13:50:06;;;;;;;14.60;7.50;;;;;;;;;;5107073;28;20039;-76
2022/04/12 13:52:31;;;;;;;18.23;8.77;;;;;;;;;;5088354;28;20475;-76
2022/04/12 13:54:59;;;;;;;21.50;13.13;;;;;;;;;;5090364;28;20031;-76
2022/04/12 13:57:25;;;;;;;17.52;11.70;;;;;;;;;;5107267;28;20511;-76
2022/04/12 13:59:51;;;;;;;14.68;8.20;;;;;;;;;;5107048;28;20035;-77
2022/04/12 14:02:17;;;;;;;18.83;12.65;;;;;;;;;;5108602;28;20031;-76
2022/04/12 14:04:43;;;;;;;17.45;12.70;;;;;;;;;;5106419;28;20031;-76
2022/04/12 14:07:10;;;;;;;16.60;7.97;;;;;;;;;;5108543;28;20061;-76
2022/04/12 14:09:36;;;;;;;19.33;12.45;;;;;;;;;;5109892;28;20483;-77
2022/04/12 14:12:02;;;;;;;19.08;8.68;;;;;;;;;;5107844;28;20039;-77
2022/04/12 14:14:29;;;;;;;17.08;11.75;;;;;;;;;;5089627;28;20047;-76
2022/04/12 14:16:55;;;;;;;17.55;7.38;;;;;;;;;;5091196;28;20465;-77
2022/04/12 14:19:22;;;;;;;17.35;9.80;;;;;;;;;;5089181;28;20035;-77
2022/04/12 14:21:53;;;;;;;15.48;10.93;;;;;;;;;;5084953;28;20114;-77
2022/04/12 14:24:19;;;;;;;16.73;11.30;;;;;;;;;;5085011;28;20056;-77
2022/04/12 14:26:45;;;;;;;17.20;8.27;;;;;;;;;;5103870;28;20190;-78
2022/04/12 14:29:11;;;;;;;19.30;8.95;;;;;;;;;;5107882;28;20040;-76
2022/04/12 14:31:38;;;;;;;18.00;12.32;;;;;;;;;;5091916;28;20075;-76